sensor_id;sensor_type;location;lat;lon;timestamp;P1;durP1;ratioP1;P2;durP2;ratioP2
69906;SDS011;57190;47.918;8.112;2023-05-16T00:01:25;5.80;;;5.40;;
69906;SDS011;57190;47.918;8.112;2023-05-16T00:03:54;6.20;;;5.70;;
69906;SDS011;57190;47.918;8.112;2023-05-16T00:06:21;5.57;;;5.20;;
69906;SDS011;57190;47.918;8.112;2023-05-16T00:08:47;5.93;;;5.45;;
69906;SDS011;57190;47.918;8.112;2023-05-16T00:11:13;5.93;;;5.53;;
69906;SDS011;57190;47.918;8.112;2023-05-16T00:13:41;6.40;;;5.90;;
69906;SDS011;57190;47.918;8.112;2023-05-16T00:16:07;6.15;;;5.55;;
69906;SDS011;57190;47.918;8.112;2023-05-16T00:18:33;6.65;;;6.15;;
69906;SDS011;57190;47.918;8.112;2023-05-16T00:21:02;6.50;;;6.03;;
69906;SDS011;57190;47.918;8.112;2023-05-16T00:23:29;5.88;;;5.47;;
69906;SDS011;57190;47.918;8.112;2023-05-16T00:25:55;6.07;;;5.57;;
69906;SDS011;57190;47.918;8.112;2023-05-16T00:28:20;6.18;;;5.75;;
69906;SDS011;57190;47.918;8.112;2023-05-16T00:30:46;6.95;;;6.38;;
69906;SDS011;57190;47.918;8.112;2023-05-16T00:33:12;6.90;;;6.40;;
69906;SDS011;57190;47.918;8.112;2023-05-16T00:35:37;6.72;;;6.30;;
69906;SDS011;57190;47.918;8.112;2023-05-16T00:38:03;6.55;;;6.13;;
69906;SDS011;57190;47.918;8.112;2023-05-16T00:40:28;6.65;;;6.10;;
69906;SDS011;57190;47.918;8.112;2023-05-16T00:42:54;7.65;;;7.03;;
69906;SDS011;57190;47.918;8.112;2023-05-16T00:45:20;6.15;;;5.75;;
69906;SDS011;57190;47.918;8.112;2023-05-16T00:47:45;6.45;;;5.95;;
69906;SDS011;57190;47.918;8.112;2023-05-16T00:50:11;7.30;;;6.80;;
69906;SDS011;57190;47.918;8.112;2023-05-16T00:52:37;7.32;;;6.82;;
69906;SDS011;57190;47.918;8.112;2023-05-16T00:55:03;8.20;;;7.60;;
69906;SDS011;57190;47.918;8.112;2023-05-16T00:57:29;7.13;;;6.53;;
69906;SDS011;57190;47.918;8.112;2023-05-16T00:59:55;7.40;;;6.80;;
69906;SDS011;57190;47.918;8.112;2023-05-16T01:02:20;7.70;;;7.10;;
69906;SDS011;57190;47.918;8.112;2023-05-16T01:04:46;7.80;;;7.20;;
69906;SDS011;57190;47.918;8.112;2023-05-16T01:07:13;7.72;;;7.13;;
69906;SDS011;57190;47.918;8.112;2023-05-16T01:09:38;7.53;;;6.93;;
69906;SDS011;57190;47.918;8.112;2023-05-16T01:14:48;7.30;;;6.80;;
69906;SDS011;57190;47.918;8.112;2023-05-16T01:22:46;6.65;;;6.25;;
69906;SDS011;57190;47.918;8.112;2023-05-16T01:28:12;7.10;;;6.60;;
69906;SDS011;57190;47.918;8.112;2023-05-16T01:30:39;6.50;;;6.00;;
69906;SDS011;57190;47.918;8.112;2023-05-16T01:33:08;7.85;;;7.35;;
69906;SDS011;57190;47.918;8.112;2023-05-16T01:35:36;6.65;;;6.25;;
69906;SDS011;57190;47.918;8.112;2023-05-16T01:38:23;7.57;;;6.97;;
69906;SDS011;57190;47.918;8.112;2023-05-16T01:43:17;7.38;;;6.78;;
69906;SDS011;57190;47.918;8.112;2023-05-16T01:45:54;7.10;;;6.60;;
69906;SDS011;57190;47.918;8.112;2023-05-16T01:48:29;7.90;;;7.30;;
69906;SDS011;57190;47.918;8.112;2023-05-16T01:50:59;6.63;;;6.00;;
69906;SDS011;57190;47.918;8.112;2023-05-16T01:53:28;7.32;;;6.72;;
69906;SDS011;57190;47.918;8.112;2023-05-16T01:56:01;7.53;;;6.75;;
69906;SDS011;57190;47.918;8.112;2023-05-16T01:58:29;7.60;;;7.10;;
69906;SDS011;57190;47.918;8.112;2023-05-16T02:01:00;7.25;;;6.75;;
69906;SDS011;57190;47.918;8.112;2023-05-16T02:03:31;8.00;;;7.30;;
69906;SDS011;57190;47.918;8.112;2023-05-16T02:05:57;7.28;;;6.72;;
69906;SDS011;57190;47.918;8.112;2023-05-16T02:08:23;7.15;;;6.65;;
69906;SDS011;57190;47.918;8.112;2023-05-16T02:10:49;7.35;;;6.85;;
69906;SDS011;57190;47.918;8.112;2023-05-16T02:13:15;8.30;;;7.70;;
69906;SDS011;57190;47.918;8.112;2023-05-16T02:15:41;7.07;;;6.50;;
69906;SDS011;57190;47.918;8.112;2023-05-16T02:18:06;6.90;;;6.40;;
69906;SDS011;57190;47.918;8.112;2023-05-16T02:20:31;7.72;;;7.20;;
69906;SDS011;57190;47.918;8.112;2023-05-16T02:22:57;7.70;;;7.10;;
69906;SDS011;57190;47.918;8.112;2023-05-16T02:25:23;7.63;;;7.00;;
69906;SDS011;57190;47.918;8.112;2023-05-16T02:27:48;8.10;;;7.50;;
69906;SDS011;57190;47.918;8.112;2023-05-16T02:30:14;7.65;;;7.05;;
69906;SDS011;57190;47.918;8.112;2023-05-16T02:32:39;7.72;;;7.03;;
69906;SDS011;57190;47.918;8.112;2023-05-16T02:35:05;6.78;;;6.30;;
69906;SDS011;57190;47.918;8.112;2023-05-16T02:37:32;7.25;;;6.65;;
69906;SDS011;57190;47.918;8.112;2023-05-16T02:39:58;8.30;;;7.47;;
69906;SDS011;57190;47.918;8.112;2023-05-16T02:42:24;8.02;;;7.40;;
69906;SDS011;57190;47.918;8.112;2023-05-16T02:44:51;7.93;;;7.32;;
69906;SDS011;57190;47.918;8.112;2023-05-16T02:47:17;7.15;;;6.57;;
69906;SDS011;57190;47.918;8.112;2023-05-16T02:49:42;6.55;;;6.15;;
69906;SDS011;57190;47.918;8.112;2023-05-16T02:52:08;7.78;;;7.18;;
69906;SDS011;57190;47.918;8.112;2023-05-16T02:54:33;8.05;;;7.40;;
69906;SDS011;57190;47.918;8.112;2023-05-16T02:56:59;8.15;;;7.53;;
69906;SDS011;57190;47.918;8.112;2023-05-16T02:59:24;8.48;;;7.88;;
69906;SDS011;57190;47.918;8.112;2023-05-16T03:01:50;8.93;;;8.32;;
69906;SDS011;57190;47.918;8.112;2023-05-16T03:04:16;7.95;;;7.35;;
69906;SDS011;57190;47.918;8.112;2023-05-16T03:06:42;8.13;;;7.50;;
69906;SDS011;57190;47.918;8.112;2023-05-16T03:09:07;8.77;;;8.18;;
69906;SDS011;57190;47.918;8.112;2023-05-16T03:11:33;8.68;;;7.97;;
69906;SDS011;57190;47.918;8.112;2023-05-16T03:13:59;8.80;;;8.00;;
69906;SDS011;57190;47.918;8.112;2023-05-16T03:16:24;7.97;;;7.38;;
69906;SDS011;57190;47.918;8.112;2023-05-16T03:18:50;7.97;;;7.40;;
69906;SDS011;57190;47.918;8.112;2023-05-16T03:21:15;8.40;;;7.80;;
69906;SDS011;57190;47.918;8.112;2023-05-16T03:23:41;8.02;;;7.43;;
69906;SDS011;57190;47.918;8.112;2023-05-16T03:26:07;7.93;;;7.22;;
69906;SDS011;57190;47.918;8.112;2023-05-16T03:28:33;8.15;;;7.55;;
69906;SDS011;57190;47.918;8.112;2023-05-16T03:30:58;9.18;;;8.38;;
69906;SDS011;57190;47.918;8.112;2023-05-16T03:33:24;8.77;;;8.07;;
69906;SDS011;57190;47.918;8.112;2023-05-16T03:35:50;8.25;;;7.57;;
69906;SDS011;57190;47.918;8.112;2023-05-16T03:38:16;7.88;;;7.38;;
69906;SDS011;57190;47.918;8.112;2023-05-16T03:40:42;8.32;;;7.63;;
69906;SDS011;57190;47.918;8.112;2023-05-16T03:43:07;8.52;;;7.93;;
69906;SDS011;57190;47.918;8.112;2023-05-16T03:45:33;8.50;;;7.82;;
69906;SDS011;57190;47.918;8.112;2023-05-16T03:47:58;8.10;;;7.50;;
69906;SDS011;57190;47.918;8.112;2023-05-16T03:50:24;7.70;;;7.10;;
69906;SDS011;57190;47.918;8.112;2023-05-16T03:52:50;9.10;;;8.27;;
69906;SDS011;57190;47.918;8.112;2023-05-16T03:55:19;9.43;;;8.73;;
69906;SDS011;57190;47.918;8.112;2023-05-16T03:57:45;8.07;;;7.47;;
69906;SDS011;57190;47.918;8.112;2023-05-16T04:00:12;8.73;;;7.97;;
69906;SDS011;57190;47.918;8.112;2023-05-16T04:02:38;8.68;;;8.07;;
69906;SDS011;57190;47.918;8.112;2023-05-16T04:05:08;7.85;;;7.32;;
69906;SDS011;57190;47.918;8.112;2023-05-16T04:07:35;8.73;;;7.93;;
69906;SDS011;57190;47.918;8.112;2023-05-16T04:10:01;8.23;;;7.63;;
69906;SDS011;57190;47.918;8.112;2023-05-16T04:12:28;8.48;;;7.88;;
69906;SDS011;57190;47.918;8.112;2023-05-16T04:14:53;8.57;;;7.90;;
69906;SDS011;57190;47.918;8.112;2023-05-16T04:17:18;10.13;;;9.32;;
69906;SDS011;57190;47.918;8.112;2023-05-16T04:19:44;9.38;;;8.68;;
69906;SDS011;57190;47.918;8.112;2023-05-16T04:22:10;9.38;;;8.68;;
69906;SDS011;57190;47.918;8.112;2023-05-16T04:24:35;9.90;;;9.10;;
69906;SDS011;57190;47.918;8.112;2023-05-16T04:27:01;9.95;;;9.15;;
69906;SDS011;57190;47.918;8.112;2023-05-16T04:29:26;10.27;;;9.35;;
69906;SDS011;57190;47.918;8.112;2023-05-16T04:31:52;11.00;;;10.10;;
69906;SDS011;57190;47.918;8.112;2023-05-16T04:34:17;10.77;;;9.82;;
69906;SDS011;57190;47.918;8.112;2023-05-16T04:36:43;10.50;;;9.70;;
69906;SDS011;57190;47.918;8.112;2023-05-16T04:39:09;11.43;;;10.40;;
69906;SDS011;57190;47.918;8.112;2023-05-16T04:41:34;10.82;;;10.00;;
69906;SDS011;57190;47.918;8.112;2023-05-16T04:44:01;10.05;;;9.35;;
69906;SDS011;57190;47.918;8.112;2023-05-16T04:46:28;9.10;;;8.50;;
69906;SDS011;57190;47.918;8.112;2023-05-16T04:48:54;10.93;;;10.13;;
69906;SDS011;57190;47.918;8.112;2023-05-16T04:51:20;11.77;;;10.65;;
69906;SDS011;57190;47.918;8.112;2023-05-16T04:53:46;11.48;;;10.50;;
69906;SDS011;57190;47.918;8.112;2023-05-16T04:56:11;10.30;;;9.50;;
69906;SDS011;57190;47.918;8.112;2023-05-16T04:58:37;11.65;;;10.63;;
69906;SDS011;57190;47.918;8.112;2023-05-16T05:01:02;10.93;;;10.13;;
69906;SDS011;57190;47.918;8.112;2023-05-16T05:10:16;12.27;;;11.27;;
69906;SDS011;57190;47.918;8.112;2023-05-16T05:12:41;11.10;;;10.30;;
69906;SDS011;57190;47.918;8.112;2023-05-16T05:15:07;12.60;;;11.60;;
69906;SDS011;57190;47.918;8.112;2023-05-16T05:17:33;12.82;;;11.82;;
69906;SDS011;57190;47.918;8.112;2023-05-16T05:19:58;12.93;;;11.95;;
69906;SDS011;57190;47.918;8.112;2023-05-16T05:22:24;10.55;;;9.75;;
69906;SDS011;57190;47.918;8.112;2023-05-16T05:24:49;13.50;;;12.48;;
69906;SDS011;57190;47.918;8.112;2023-05-16T05:27:15;11.25;;;10.43;;
69906;SDS011;57190;47.918;8.112;2023-05-16T05:29:41;13.30;;;12.10;;
69906;SDS011;57190;47.918;8.112;2023-05-16T05:32:06;11.57;;;10.65;;
69906;SDS011;57190;47.918;8.112;2023-05-16T05:34:32;12.90;;;11.85;;
69906;SDS011;57190;47.918;8.112;2023-05-16T05:36:58;11.77;;;10.88;;
69906;SDS011;57190;47.918;8.112;2023-05-16T05:39:23;12.43;;;11.52;;
69906;SDS011;57190;47.918;8.112;2023-05-16T05:41:49;12.60;;;11.57;;
69906;SDS011;57190;47.918;8.112;2023-05-16T05:44:15;12.10;;;11.20;;
69906;SDS011;57190;47.918;8.112;2023-05-16T05:46:40;13.07;;;11.98;;
69906;SDS011;57190;47.918;8.112;2023-05-16T05:49:07;12.73;;;11.77;;
69906;SDS011;57190;47.918;8.112;2023-05-16T05:51:32;11.80;;;10.90;;
69906;SDS011;57190;47.918;8.112;2023-05-16T05:53:58;12.90;;;11.90;;
69906;SDS011;57190;47.918;8.112;2023-05-16T05:56:23;12.98;;;11.98;;
69906;SDS011;57190;47.918;8.112;2023-05-16T05:58:49;12.02;;;11.02;;
69906;SDS011;57190;47.918;8.112;2023-05-16T06:11:29;9.88;;;9.18;;
69906;SDS011;57190;47.918;8.112;2023-05-16T06:13:54;11.40;;;10.50;;
69906;SDS011;57190;47.918;8.112;2023-05-16T06:16:23;10.63;;;9.82;;
69906;SDS011;57190;47.918;8.112;2023-05-16T06:18:50;9.50;;;8.80;;
69906;SDS011;57190;47.918;8.112;2023-05-16T06:21:15;9.90;;;9.20;;
69906;SDS011;57190;47.918;8.112;2023-05-16T06:23:41;9.82;;;9.10;;
69906;SDS011;57190;47.918;8.112;2023-05-16T06:26:06;9.77;;;8.90;;
69906;SDS011;57190;47.918;8.112;2023-05-16T06:28:32;8.65;;;8.05;;
69906;SDS011;57190;47.918;8.112;2023-05-16T06:30:57;7.95;;;7.38;;
69906;SDS011;57190;47.918;8.112;2023-05-16T06:33:23;8.77;;;8.18;;
69906;SDS011;57190;47.918;8.112;2023-05-16T06:35:48;9.27;;;8.57;;
69906;SDS011;57190;47.918;8.112;2023-05-16T06:38:14;7.88;;;7.15;;
69906;SDS011;57190;47.918;8.112;2023-05-16T06:40:40;7.35;;;6.85;;
69906;SDS011;57190;47.918;8.112;2023-05-16T06:43:06;7.00;;;6.50;;
69906;SDS011;57190;47.918;8.112;2023-05-16T06:45:31;7.40;;;6.72;;
69906;SDS011;57190;47.918;8.112;2023-05-16T06:47:57;7.18;;;6.57;;
69906;SDS011;57190;47.918;8.112;2023-05-16T06:50:22;6.20;;;5.80;;
69906;SDS011;57190;47.918;8.112;2023-05-16T06:52:48;5.43;;;5.05;;
69906;SDS011;57190;47.918;8.112;2023-05-16T06:55:13;6.00;;;5.50;;
69906;SDS011;57190;47.918;8.112;2023-05-16T06:57:39;4.20;;;3.90;;
69906;SDS011;57190;47.918;8.112;2023-05-16T07:00:05;4.47;;;4.18;;
69906;SDS011;57190;47.918;8.112;2023-05-16T07:02:32;5.03;;;4.63;;
69906;SDS011;57190;47.918;8.112;2023-05-16T07:04:58;4.75;;;4.45;;
69906;SDS011;57190;47.918;8.112;2023-05-16T07:07:23;4.68;;;4.35;;
69906;SDS011;57190;47.918;8.112;2023-05-16T07:09:49;5.05;;;4.75;;
69906;SDS011;57190;47.918;8.112;2023-05-16T07:12:14;5.88;;;5.47;;
69906;SDS011;57190;47.918;8.112;2023-05-16T07:14:40;5.10;;;4.75;;
69906;SDS011;57190;47.918;8.112;2023-05-16T07:17:07;5.40;;;5.00;;
69906;SDS011;57190;47.918;8.112;2023-05-16T07:19:33;5.07;;;4.57;;
69906;SDS011;57190;47.918;8.112;2023-05-16T07:21:58;5.13;;;4.70;;
69906;SDS011;57190;47.918;8.112;2023-05-16T07:24:24;5.53;;;5.03;;
69906;SDS011;57190;47.918;8.112;2023-05-16T07:26:49;5.35;;;4.95;;
69906;SDS011;57190;47.918;8.112;2023-05-16T07:29:15;5.57;;;5.22;;
69906;SDS011;57190;47.918;8.112;2023-05-16T07:31:41;5.85;;;5.35;;
69906;SDS011;57190;47.918;8.112;2023-05-16T07:34:06;5.10;;;4.78;;
69906;SDS011;57190;47.918;8.112;2023-05-16T07:36:33;6.20;;;5.70;;
69906;SDS011;57190;47.918;8.112;2023-05-16T07:38:59;5.85;;;5.45;;
69906;SDS011;57190;47.918;8.112;2023-05-16T07:41:24;5.05;;;4.65;;
69906;SDS011;57190;47.918;8.112;2023-05-16T07:43:50;4.82;;;4.53;;
69906;SDS011;57190;47.918;8.112;2023-05-16T07:46:16;5.00;;;4.70;;
69906;SDS011;57190;47.918;8.112;2023-05-16T07:48:41;5.00;;;4.70;;
69906;SDS011;57190;47.918;8.112;2023-05-16T07:51:07;6.47;;;5.97;;
69906;SDS011;57190;47.918;8.112;2023-05-16T07:53:33;5.30;;;4.80;;
69906;SDS011;57190;47.918;8.112;2023-05-16T07:55:58;5.30;;;4.93;;
69906;SDS011;57190;47.918;8.112;2023-05-16T07:58:24;4.95;;;4.63;;
69906;SDS011;57190;47.918;8.112;2023-05-16T08:00:50;4.85;;;4.55;;
69906;SDS011;57190;47.918;8.112;2023-05-16T08:03:15;5.15;;;4.75;;
69906;SDS011;57190;47.918;8.112;2023-05-16T08:05:41;5.32;;;4.93;;
69906;SDS011;57190;47.918;8.112;2023-05-16T08:08:07;4.80;;;4.50;;
69906;SDS011;57190;47.918;8.112;2023-05-16T08:10:32;5.53;;;5.13;;
69906;SDS011;57190;47.918;8.112;2023-05-16T08:12:58;6.45;;;5.95;;
69906;SDS011;57190;47.918;8.112;2023-05-16T08:15:25;5.85;;;5.45;;
69906;SDS011;57190;47.918;8.112;2023-05-16T08:17:53;5.80;;;5.30;;
69906;SDS011;57190;47.918;8.112;2023-05-16T08:20:21;5.50;;;5.10;;
69906;SDS011;57190;47.918;8.112;2023-05-16T08:22:47;5.43;;;5.03;;
69906;SDS011;57190;47.918;8.112;2023-05-16T08:25:12;4.65;;;4.35;;
69906;SDS011;57190;47.918;8.112;2023-05-16T08:27:38;5.38;;;4.97;;
69906;SDS011;57190;47.918;8.112;2023-05-16T08:30:04;6.38;;;5.88;;
69906;SDS011;57190;47.918;8.112;2023-05-16T08:32:30;6.07;;;5.68;;
69906;SDS011;57190;47.918;8.112;2023-05-16T08:34:56;6.70;;;6.15;;
69906;SDS011;57190;47.918;8.112;2023-05-16T08:37:21;6.50;;;6.05;;
69906;SDS011;57190;47.918;8.112;2023-05-16T08:39:47;6.38;;;5.97;;
69906;SDS011;57190;47.918;8.112;2023-05-16T08:42:12;6.80;;;6.30;;
69906;SDS011;57190;47.918;8.112;2023-05-16T08:44:38;5.88;;;5.38;;
69906;SDS011;57190;47.918;8.112;2023-05-16T08:47:10;6.30;;;5.80;;
69906;SDS011;57190;47.918;8.112;2023-05-16T08:49:40;6.20;;;5.68;;
69906;SDS011;57190;47.918;8.112;2023-05-16T08:52:08;4.95;;;4.65;;
69906;SDS011;57190;47.918;8.112;2023-05-16T08:54:35;4.28;;;3.97;;
69906;SDS011;57190;47.918;8.112;2023-05-16T08:57:01;3.97;;;3.78;;
69906;SDS011;57190;47.918;8.112;2023-05-16T08:59:27;3.20;;;3.00;;
69906;SDS011;57190;47.918;8.112;2023-05-16T09:01:54;3.92;;;3.63;;
69906;SDS011;57190;47.918;8.112;2023-05-16T09:04:20;3.42;;;3.08;;
69906;SDS011;57190;47.918;8.112;2023-05-16T09:06:46;3.53;;;3.28;;
69906;SDS011;57190;47.918;8.112;2023-05-16T09:09:12;3.60;;;3.40;;
69906;SDS011;57190;47.918;8.112;2023-05-16T09:11:38;3.60;;;3.40;;
69906;SDS011;57190;47.918;8.112;2023-05-16T09:14:03;4.00;;;3.70;;
69906;SDS011;57190;47.918;8.112;2023-05-16T09:16:32;3.85;;;3.65;;
69906;SDS011;57190;47.918;8.112;2023-05-16T09:18:58;4.95;;;4.60;;
69906;SDS011;57190;47.918;8.112;2023-05-16T09:21:26;4.28;;;3.95;;
69906;SDS011;57190;47.918;8.112;2023-05-16T09:23:53;4.10;;;3.80;;
69906;SDS011;57190;47.918;8.112;2023-05-16T09:26:19;4.28;;;3.97;;
69906;SDS011;57190;47.918;8.112;2023-05-16T09:28:46;4.57;;;4.28;;
69906;SDS011;57190;47.918;8.112;2023-05-16T09:31:18;4.50;;;4.20;;
69906;SDS011;57190;47.918;8.112;2023-05-16T09:33:57;4.88;;;4.50;;
69906;SDS011;57190;47.918;8.112;2023-05-16T09:36:22;4.82;;;4.40;;
69906;SDS011;57190;47.918;8.112;2023-05-16T09:38:51;5.40;;;5.00;;
69906;SDS011;57190;47.918;8.112;2023-05-16T09:41:17;5.38;;;5.05;;
69906;SDS011;57190;47.918;8.112;2023-05-16T09:43:43;5.15;;;4.85;;
69906;SDS011;57190;47.918;8.112;2023-05-16T09:46:15;5.95;;;5.55;;
69906;SDS011;57190;47.918;8.112;2023-05-16T09:48:43;5.20;;;4.80;;
69906;SDS011;57190;47.918;8.112;2023-05-16T09:51:10;5.35;;;5.05;;
69906;SDS011;57190;47.918;8.112;2023-05-16T09:53:37;5.28;;;4.88;;
69906;SDS011;57190;47.918;8.112;2023-05-16T09:56:04;5.25;;;4.95;;
69906;SDS011;57190;47.918;8.112;2023-05-16T09:58:35;5.47;;;5.07;;
69906;SDS011;57190;47.918;8.112;2023-05-16T10:01:05;5.10;;;4.72;;
69906;SDS011;57190;47.918;8.112;2023-05-16T10:03:34;5.13;;;4.72;;
69906;SDS011;57190;47.918;8.112;2023-05-16T10:06:02;5.95;;;5.50;;
69906;SDS011;57190;47.918;8.112;2023-05-16T10:08:30;5.57;;;5.18;;
69906;SDS011;57190;47.918;8.112;2023-05-16T10:11:00;5.38;;;4.97;;
69906;SDS011;57190;47.918;8.112;2023-05-16T10:13:27;6.15;;;5.75;;
69906;SDS011;57190;47.918;8.112;2023-05-16T10:15:55;5.47;;;5.07;;
69906;SDS011;57190;47.918;8.112;2023-05-16T10:18:23;6.22;;;5.82;;
69906;SDS011;57190;47.918;8.112;2023-05-16T10:20:54;5.63;;;5.22;;
69906;SDS011;57190;47.918;8.112;2023-05-16T10:23:21;6.03;;;5.63;;
69906;SDS011;57190;47.918;8.112;2023-05-16T10:25:50;5.43;;;5.00;;
69906;SDS011;57190;47.918;8.112;2023-05-16T10:28:17;6.13;;;5.72;;
69906;SDS011;57190;47.918;8.112;2023-05-16T10:30:46;5.82;;;5.43;;
69906;SDS011;57190;47.918;8.112;2023-05-16T10:33:15;6.40;;;5.90;;
69906;SDS011;57190;47.918;8.112;2023-05-16T10:35:42;6.55;;;5.95;;
69906;SDS011;57190;47.918;8.112;2023-05-16T10:38:09;5.82;;;5.43;;
69906;SDS011;57190;47.918;8.112;2023-05-16T10:40:37;5.75;;;5.35;;
69906;SDS011;57190;47.918;8.112;2023-05-16T10:43:04;6.90;;;6.40;;
69906;SDS011;57190;47.918;8.112;2023-05-16T10:45:32;6.60;;;6.15;;
69906;SDS011;57190;47.918;8.112;2023-05-16T10:47:59;6.32;;;5.93;;
69906;SDS011;57190;47.918;8.112;2023-05-16T10:50:38;6.15;;;5.75;;
69906;SDS011;57190;47.918;8.112;2023-05-16T10:53:13;6.00;;;5.60;;
69906;SDS011;57190;47.918;8.112;2023-05-16T11:06:22;7.30;;;6.70;;
69906;SDS011;57190;47.918;8.112;2023-05-16T11:11:37;7.15;;;6.55;;
69906;SDS011;57190;47.918;8.112;2023-05-16T11:14:16;7.22;;;6.63;;
69906;SDS011;57190;47.918;8.112;2023-05-16T11:16:51;6.10;;;5.70;;
69906;SDS011;57190;47.918;8.112;2023-05-16T11:24:33;5.68;;;5.28;;
69906;SDS011;57190;47.918;8.112;2023-05-16T11:27:00;5.32;;;4.93;;
69906;SDS011;57190;47.918;8.112;2023-05-16T11:29:30;5.00;;;4.60;;
69906;SDS011;57190;47.918;8.112;2023-05-16T11:32:00;5.70;;;5.30;;
69906;SDS011;57190;47.918;8.112;2023-05-16T11:34:27;5.40;;;5.00;;
69906;SDS011;57190;47.918;8.112;2023-05-16T11:36:53;5.53;;;5.13;;
69906;SDS011;57190;47.918;8.112;2023-05-16T11:39:20;6.60;;;6.10;;
69906;SDS011;57190;47.918;8.112;2023-05-16T11:41:48;6.78;;;6.28;;
69906;SDS011;57190;47.918;8.112;2023-05-16T11:44:16;6.13;;;5.72;;
69906;SDS011;57190;47.918;8.112;2023-05-16T11:46:42;7.35;;;6.85;;
69906;SDS011;57190;47.918;8.112;2023-05-16T11:49:08;7.57;;;6.97;;
69906;SDS011;57190;47.918;8.112;2023-05-16T11:51:40;7.03;;;6.43;;
69906;SDS011;57190;47.918;8.112;2023-05-16T11:54:10;6.97;;;6.47;;
69906;SDS011;57190;47.918;8.112;2023-05-16T11:56:37;6.43;;;5.93;;
69906;SDS011;57190;47.918;8.112;2023-05-16T11:59:05;6.65;;;6.15;;
69906;SDS011;57190;47.918;8.112;2023-05-16T12:01:35;6.47;;;5.97;;
69906;SDS011;57190;47.918;8.112;2023-05-16T12:04:13;6.07;;;5.57;;
69906;SDS011;57190;47.918;8.112;2023-05-16T12:06:40;6.45;;;5.95;;
69906;SDS011;57190;47.918;8.112;2023-05-16T12:09:10;7.85;;;7.25;;
69906;SDS011;57190;47.918;8.112;2023-05-16T12:11:38;7.43;;;6.93;;
69906;SDS011;57190;47.918;8.112;2023-05-16T12:14:04;7.97;;;7.38;;
69906;SDS011;57190;47.918;8.112;2023-05-16T12:16:34;7.85;;;7.25;;
69906;SDS011;57190;47.918;8.112;2023-05-16T12:19:01;7.90;;;7.30;;
69906;SDS011;57190;47.918;8.112;2023-05-16T12:21:30;8.18;;;7.50;;
69906;SDS011;57190;47.918;8.112;2023-05-16T12:23:56;7.80;;;7.20;;
69906;SDS011;57190;47.918;8.112;2023-05-16T12:26:25;7.45;;;6.95;;
69906;SDS011;57190;47.918;8.112;2023-05-16T12:28:56;7.88;;;7.30;;
69906;SDS011;57190;47.918;8.112;2023-05-16T12:31:24;7.10;;;6.60;;
69906;SDS011;57190;47.918;8.112;2023-05-16T12:33:53;8.20;;;7.50;;
69906;SDS011;57190;47.918;8.112;2023-05-16T12:36:22;7.95;;;7.35;;
69906;SDS011;57190;47.918;8.112;2023-05-16T12:38:48;7.40;;;6.80;;
69906;SDS011;57190;47.918;8.112;2023-05-16T12:41:18;8.20;;;7.60;;
69906;SDS011;57190;47.918;8.112;2023-05-16T12:43:47;7.65;;;7.05;;
69906;SDS011;57190;47.918;8.112;2023-05-16T12:46:14;7.78;;;7.20;;
69906;SDS011;57190;47.918;8.112;2023-05-16T12:48:39;8.25;;;7.25;;
69906;SDS011;57190;47.918;8.112;2023-05-16T12:51:15;7.55;;;7.05;;
69906;SDS011;57190;47.918;8.112;2023-05-16T12:53:43;7.38;;;6.75;;
69906;SDS011;57190;47.918;8.112;2023-05-16T12:56:11;7.47;;;6.88;;
69906;SDS011;57190;47.918;8.112;2023-05-16T12:58:38;7.70;;;7.10;;
69906;SDS011;57190;47.918;8.112;2023-05-16T13:01:04;6.47;;;5.97;;
69906;SDS011;57190;47.918;8.112;2023-05-16T13:03:30;7.63;;;7.00;;
69906;SDS011;57190;47.918;8.112;2023-05-16T13:05:56;7.05;;;6.55;;
69906;SDS011;57190;47.918;8.112;2023-05-16T13:08:23;7.82;;;7.18;;
69906;SDS011;57190;47.918;8.112;2023-05-16T13:10:48;7.72;;;7.18;;
69906;SDS011;57190;47.918;8.112;2023-05-16T13:13:15;8.00;;;7.35;;
69906;SDS011;57190;47.918;8.112;2023-05-16T13:15:42;8.05;;;7.35;;
69906;SDS011;57190;47.918;8.112;2023-05-16T13:18:08;8.73;;;8.02;;
69906;SDS011;57190;47.918;8.112;2023-05-16T13:20:34;7.82;;;7.22;;
69906;SDS011;57190;47.918;8.112;2023-05-16T13:23:00;8.13;;;7.43;;
69906;SDS011;57190;47.918;8.112;2023-05-16T13:25:25;8.05;;;7.45;;
69906;SDS011;57190;47.918;8.112;2023-05-16T13:27:51;7.90;;;7.22;;
69906;SDS011;57190;47.918;8.112;2023-05-16T13:30:16;9.05;;;8.35;;
69906;SDS011;57190;47.918;8.112;2023-05-16T13:32:42;8.68;;;7.97;;
69906;SDS011;57190;47.918;8.112;2023-05-16T13:35:07;8.50;;;7.80;;
69906;SDS011;57190;47.918;8.112;2023-05-16T13:37:34;8.20;;;7.53;;
69906;SDS011;57190;47.918;8.112;2023-05-16T13:40:00;7.10;;;6.50;;
69906;SDS011;57190;47.918;8.112;2023-05-16T13:42:26;8.20;;;7.60;;
69906;SDS011;57190;47.918;8.112;2023-05-16T13:44:52;7.85;;;7.18;;
69906;SDS011;57190;47.918;8.112;2023-05-16T13:47:17;6.97;;;6.47;;
69906;SDS011;57190;47.918;8.112;2023-05-16T13:49:43;7.82;;;7.13;;
69906;SDS011;57190;47.918;8.112;2023-05-16T13:52:09;6.80;;;6.28;;
69906;SDS011;57190;47.918;8.112;2023-05-16T13:54:34;6.95;;;6.45;;
69906;SDS011;57190;47.918;8.112;2023-05-16T13:57:00;7.15;;;6.60;;
69906;SDS011;57190;47.918;8.112;2023-05-16T13:59:27;6.80;;;6.30;;
69906;SDS011;57190;47.918;8.112;2023-05-16T14:01:53;7.03;;;6.53;;
69906;SDS011;57190;47.918;8.112;2023-05-16T14:04:18;6.70;;;6.20;;
69906;SDS011;57190;47.918;8.112;2023-05-16T14:06:44;7.07;;;6.43;;
69906;SDS011;57190;47.918;8.112;2023-05-16T14:09:09;6.90;;;6.40;;
69906;SDS011;57190;47.918;8.112;2023-05-16T14:11:36;7.25;;;6.75;;
69906;SDS011;57190;47.918;8.112;2023-05-16T14:14:02;6.70;;;6.20;;
69906;SDS011;57190;47.918;8.112;2023-05-16T14:16:27;5.90;;;5.50;;
69906;SDS011;57190;47.918;8.112;2023-05-16T14:18:55;6.90;;;6.32;;
69906;SDS011;57190;47.918;8.112;2023-05-16T14:21:20;6.43;;;5.97;;
69906;SDS011;57190;47.918;8.112;2023-05-16T14:23:46;6.50;;;6.10;;
69906;SDS011;57190;47.918;8.112;2023-05-16T14:26:12;7.05;;;6.40;;
69906;SDS011;57190;47.918;8.112;2023-05-16T14:28:38;6.68;;;6.25;;
69906;SDS011;57190;47.918;8.112;2023-05-16T14:31:04;6.72;;;6.22;;
69906;SDS011;57190;47.918;8.112;2023-05-16T14:33:29;6.95;;;6.35;;
69906;SDS011;57190;47.918;8.112;2023-05-16T14:35:56;13.10;;;12.05;;
69906;SDS011;57190;47.918;8.112;2023-05-16T14:38:22;24.17;;;21.08;;
69906;SDS011;57190;47.918;8.112;2023-05-16T14:40:48;11.80;;;10.60;;
69906;SDS011;57190;47.918;8.112;2023-05-16T14:43:13;17.48;;;14.25;;
69906;SDS011;57190;47.918;8.112;2023-05-16T14:45:39;5.93;;;5.50;;
69906;SDS011;57190;47.918;8.112;2023-05-16T14:48:05;5.97;;;5.47;;
69906;SDS011;57190;47.918;8.112;2023-05-16T14:50:31;5.43;;;5.03;;
69906;SDS011;57190;47.918;8.112;2023-05-16T14:52:57;6.07;;;5.45;;
69906;SDS011;57190;47.918;8.112;2023-05-16T14:55:22;4.15;;;3.95;;
69906;SDS011;57190;47.918;8.112;2023-05-16T14:57:48;4.55;;;4.25;;
69906;SDS011;57190;47.918;8.112;2023-05-16T15:00:14;4.97;;;4.60;;
69906;SDS011;57190;47.918;8.112;2023-05-16T15:02:41;5.68;;;5.28;;
69906;SDS011;57190;47.918;8.112;2023-05-16T15:05:07;6.22;;;5.72;;
69906;SDS011;57190;47.918;8.112;2023-05-16T15:07:33;6.25;;;5.85;;
69906;SDS011;57190;47.918;8.112;2023-05-16T15:09:58;5.60;;;5.20;;
69906;SDS011;57190;47.918;8.112;2023-05-16T15:12:24;6.05;;;5.65;;
69906;SDS011;57190;47.918;8.112;2023-05-16T15:14:49;6.05;;;5.65;;
69906;SDS011;57190;47.918;8.112;2023-05-16T15:17:15;5.90;;;5.50;;
69906;SDS011;57190;47.918;8.112;2023-05-16T15:19:40;6.30;;;5.70;;
69906;SDS011;57190;47.918;8.112;2023-05-16T15:22:06;6.93;;;6.32;;
69906;SDS011;57190;47.918;8.112;2023-05-16T15:24:32;6.60;;;6.10;;
69906;SDS011;57190;47.918;8.112;2023-05-16T15:26:58;6.57;;;5.97;;
69906;SDS011;57190;47.918;8.112;2023-05-16T15:29:24;5.07;;;4.78;;
69906;SDS011;57190;47.918;8.112;2023-05-16T15:31:50;6.32;;;5.93;;